sensor_id;sensor_type;location;lat;lon;timestamp;noise_LAeq;noise_LA_min;noise_LA_max;noise_LA01;noise_LA95
49568;Laerm;35474;51.032;6.998;2023-03-23T00:01:23;56.36;42.71;81.64;;
49568;Laerm;35474;51.032;6.998;2023-03-23T00:03:52;62.18;43.39;85.24;;
49568;Laerm;35474;51.032;6.998;2023-03-23T00:06:19;62.91;43.90;86.72;;
49568;Laerm;35474;51.032;6.998;2023-03-23T00:08:50;70.60;43.19;93.75;;
49568;Laerm;35474;51.032;6.998;2023-03-23T00:11:22;71.53;42.47;93.12;;
49568;Laerm;35474;51.032;6.998;2023-03-23T00:13:50;58.88;41.89;81.54;;
49568;Laerm;35474;51.032;6.998;2023-03-23T00:16:20;65.27;42.47;87.65;;
49568;Laerm;35474;51.032;6.998;2023-03-23T00:18:54;65.99;42.47;95.97;;
49568;Laerm;35474;51.032;6.998;2023-03-23T00:21:21;62.27;43.34;85.60;;
49568;Laerm;35474;51.032;6.998;2023-03-23T00:24:07;68.46;43.04;93.80;;
49568;Laerm;35474;51.032;6.998;2023-03-23T00:26:38;71.57;42.16;95.59;;
49568;Laerm;35474;51.032;6.998;2023-03-23T00:29:06;75.26;42.76;97.46;;
49568;Laerm;35474;51.032;6.998;2023-03-23T00:31:32;60.35;42.03;81.08;;
49568;Laerm;35474;51.032;6.998;2023-03-23T00:34:01;64.08;42.82;88.85;;
49568;Laerm;35474;51.032;6.998;2023-03-23T00:36:30;68.20;43.44;94.72;;
49568;Laerm;35474;51.032;6.998;2023-03-23T00:38:55;66.20;43.29;94.72;;
49568;Laerm;35474;51.032;6.998;2023-03-23T00:41:25;63.74;42.03;87.13;;
49568;Laerm;35474;51.032;6.998;2023-03-23T00:43:57;69.03;42.35;92.62;;
49568;Laerm;35474;51.032;6.998;2023-03-23T00:46:26;49.10;41.68;70.81;;
49568;Laerm;35474;51.032;6.998;2023-03-23T00:48:54;56.74;42.93;84.52;;
49568;Laerm;35474;51.032;6.998;2023-03-23T00:51:20;58.62;42.29;82.05;;
49568;Laerm;35474;51.032;6.998;2023-03-23T00:53:46;65.48;41.38;89.88;;
49568;Laerm;35474;51.032;6.998;2023-03-23T00:56:13;59.92;42.71;83.56;;
49568;Laerm;35474;51.032;6.998;2023-03-23T01:00:34;60.24;43.19;80.64;;
49568;Laerm;35474;51.032;6.998;2023-03-23T01:03:00;57.51;41.89;84.74;;
49568;Laerm;35474;51.032;6.998;2023-03-23T01:05:26;60.53;42.16;89.85;;
49568;Laerm;35474;51.032;6.998;2023-03-23T01:07:59;66.99;43.09;93.35;;
49568;Laerm;35474;51.032;6.998;2023-03-23T01:10:25;58.87;43.90;75.06;;
49568;Laerm;35474;51.032;6.998;2023-03-23T01:12:52;63.20;43.54;90.17;;
49568;Laerm;35474;51.032;6.998;2023-03-23T01:15:18;54.80;42.22;80.37;;
49568;Laerm;35474;51.032;6.998;2023-03-23T01:17:45;59.91;42.22;81.34;;
49568;Laerm;35474;51.032;6.998;2023-03-23T01:20:12;65.27;42.71;93.88;;
49568;Laerm;35474;51.032;6.998;2023-03-23T01:22:39;64.37;42.71;94.25;;
49568;Laerm;35474;51.032;6.998;2023-03-23T01:25:05;60.80;43.14;84.58;;
49568;Laerm;35474;51.032;6.998;2023-03-23T01:27:31;69.82;42.29;90.01;;
49568;Laerm;35474;51.032;6.998;2023-03-23T01:29:56;56.74;42.82;79.63;;
49568;Laerm;35474;51.032;6.998;2023-03-23T01:32:22;61.38;42.93;85.09;;
49568;Laerm;35474;51.032;6.998;2023-03-23T01:34:47;59.44;42.88;82.50;;
49568;Laerm;35474;51.032;6.998;2023-03-23T01:37:13;57.83;42.98;81.72;;
49568;Laerm;35474;51.032;6.998;2023-03-23T01:39:38;52.26;42.98;74.18;;
49568;Laerm;35474;51.032;6.998;2023-03-23T01:42:04;52.13;44.15;77.17;;
49568;Laerm;35474;51.032;6.998;2023-03-23T01:46:55;62.73;45.54;85.68;;
49568;Laerm;35474;51.032;6.998;2023-03-23T01:49:30;58.38;45.69;84.59;;
49568;Laerm;35474;51.032;6.998;2023-03-23T01:52:00;57.42;45.30;78.38;;
49568;Laerm;35474;51.032;6.998;2023-03-23T01:54:28;65.84;44.97;92.20;;
49568;Laerm;35474;51.032;6.998;2023-03-23T01:56:59;71.06;45.57;93.28;;
49568;Laerm;35474;51.032;6.998;2023-03-23T01:59:26;63.05;45.39;85.36;;
49568;Laerm;35474;51.032;6.998;2023-03-23T02:01:53;59.21;45.27;86.23;;
49568;Laerm;35474;51.032;6.998;2023-03-23T02:04:23;57.90;44.11;80.62;;
49568;Laerm;35474;51.032;6.998;2023-03-23T02:06:51;62.84;44.07;80.83;;
49568;Laerm;35474;51.032;6.998;2023-03-23T02:09:18;67.13;43.90;96.74;;
49568;Laerm;35474;51.032;6.998;2023-03-23T02:11:45;65.39;44.47;89.09;;
49568;Laerm;35474;51.032;6.998;2023-03-23T02:14:11;59.59;45.14;83.48;;
49568;Laerm;35474;51.032;6.998;2023-03-23T02:16:49;64.47;43.90;87.19;;
49568;Laerm;35474;51.032;6.998;2023-03-23T02:19:41;73.41;43.68;97.29;;
49568;Laerm;35474;51.032;6.998;2023-03-23T02:28:12;64.70;44.11;90.00;;
49568;Laerm;35474;51.032;6.998;2023-03-23T02:36:32;69.45;43.81;98.39;;
49568;Laerm;35474;51.032;6.998;2023-03-23T02:39:08;59.68;43.94;81.63;;
49568;Laerm;35474;51.032;6.998;2023-03-23T02:42:02;58.20;44.54;80.05;;
49568;Laerm;35474;51.032;6.998;2023-03-23T02:44:31;66.42;44.80;95.60;;
49568;Laerm;35474;51.032;6.998;2023-03-23T02:47:00;62.62;46.84;89.80;;
49568;Laerm;35474;51.032;6.998;2023-03-23T02:49:29;54.35;44.43;70.49;;
49568;Laerm;35474;51.032;6.998;2023-03-23T02:51:58;58.34;46.30;78.60;;
49568;Laerm;35474;51.032;6.998;2023-03-23T02:54:25;62.05;46.18;91.08;;
49568;Laerm;35474;51.032;6.998;2023-03-23T02:56:53;57.13;44.04;73.97;;
49568;Laerm;35474;51.032;6.998;2023-03-23T02:59:20;57.22;44.31;82.73;;
49568;Laerm;35474;51.032;6.998;2023-03-23T03:01:50;65.38;44.73;93.69;;
49568;Laerm;35474;51.032;6.998;2023-03-23T03:04:19;64.96;44.39;92.47;;
49568;Laerm;35474;51.032;6.998;2023-03-23T03:07:16;69.47;46.25;92.00;;
49568;Laerm;35474;51.032;6.998;2023-03-23T03:10:10;61.08;44.03;88.68;;
49568;Laerm;35474;51.032;6.998;2023-03-23T03:12:53;65.07;44.58;90.69;;
49568;Laerm;35474;51.032;6.998;2023-03-23T03:15:36;61.36;46.52;83.12;;
49568;Laerm;35474;51.032;6.998;2023-03-23T03:20:54;59.54;44.94;81.26;;
49568;Laerm;35474;51.032;6.998;2023-03-23T03:23:22;57.94;44.73;83.39;;
49568;Laerm;35474;51.032;6.998;2023-03-23T03:25:50;63.02;45.27;84.93;;
49568;Laerm;35474;51.032;6.998;2023-03-23T03:28:17;60.04;45.01;82.68;;
49568;Laerm;35474;51.032;6.998;2023-03-23T03:30:49;66.81;46.89;91.23;;
49568;Laerm;35474;51.032;6.998;2023-03-23T03:33:17;61.05;45.14;85.67;;
49568;Laerm;35474;51.032;6.998;2023-03-23T03:35:49;59.46;45.04;85.65;;
49568;Laerm;35474;51.032;6.998;2023-03-23T03:38:15;63.37;45.23;85.68;;
49568;Laerm;35474;51.032;6.998;2023-03-23T03:40:40;64.10;46.52;88.67;;
49568;Laerm;35474;51.032;6.998;2023-03-23T03:43:06;61.48;46.84;81.66;;
49568;Laerm;35474;51.032;6.998;2023-03-23T03:45:32;63.12;45.36;87.89;;
49568;Laerm;35474;51.032;6.998;2023-03-23T03:47:58;57.79;46.35;73.76;;
49568;Laerm;35474;51.032;6.998;2023-03-23T03:50:24;62.75;45.72;93.04;;
49568;Laerm;35474;51.032;6.998;2023-03-23T03:52:49;61.22;46.28;83.63;;
49568;Laerm;35474;51.032;6.998;2023-03-23T03:55:15;59.27;47.22;79.35;;
49568;Laerm;35474;51.032;6.998;2023-03-23T03:57:42;64.30;47.04;90.58;;
49568;Laerm;35474;51.032;6.998;2023-03-23T04:00:08;61.23;46.67;77.40;;
49568;Laerm;35474;51.032;6.998;2023-03-23T04:02:41;62.23;47.02;80.73;;
49568;Laerm;35474;51.032;6.998;2023-03-23T04:05:07;69.55;49.29;91.61;;
49568;Laerm;35474;51.032;6.998;2023-03-23T04:07:36;62.13;48.26;79.87;;
49568;Laerm;35474;51.032;6.998;2023-03-23T04:10:07;64.01;47.00;85.52;;
49568;Laerm;35474;51.032;6.998;2023-03-23T04:12:36;64.85;49.07;87.10;;
49568;Laerm;35474;51.032;6.998;2023-03-23T04:15:02;66.66;47.34;89.68;;
49568;Laerm;35474;51.032;6.998;2023-03-23T04:17:28;64.35;47.84;87.49;;
49568;Laerm;35474;51.032;6.998;2023-03-23T04:19:54;67.42;50.32;91.76;;
49568;Laerm;35474;51.032;6.998;2023-03-23T04:22:25;62.37;47.46;83.31;;
49568;Laerm;35474;51.032;6.998;2023-03-23T04:24:56;61.66;48.20;81.41;;
49568;Laerm;35474;51.032;6.998;2023-03-23T04:27:25;64.39;48.90;85.37;;
49568;Laerm;35474;51.032;6.998;2023-03-23T04:29:53;62.78;51.55;82.29;;
49568;Laerm;35474;51.032;6.998;2023-03-23T04:32:19;63.60;50.39;83.99;;
49568;Laerm;35474;51.032;6.998;2023-03-23T04:34:44;65.47;51.08;86.01;;
49568;Laerm;35474;51.032;6.998;2023-03-23T04:37:10;64.74;52.01;84.18;;
49568;Laerm;35474;51.032;6.998;2023-03-23T04:39:35;62.70;49.63;85.32;;
49568;Laerm;35474;51.032;6.998;2023-03-23T04:42:01;61.94;49.23;83.80;;
49568;Laerm;35474;51.032;6.998;2023-03-23T04:44:27;65.61;51.35;82.40;;
49568;Laerm;35474;51.032;6.998;2023-03-23T04:46:53;65.38;52.30;86.84;;
49568;Laerm;35474;51.032;6.998;2023-03-23T04:49:19;62.50;49.63;80.97;;
49568;Laerm;35474;51.032;6.998;2023-03-23T04:51:49;64.40;50.37;77.01;;
49568;Laerm;35474;51.032;6.998;2023-03-23T04:54:16;65.68;50.85;86.48;;
49568;Laerm;35474;51.032;6.998;2023-03-23T04:56:41;63.11;49.74;80.77;;
49568;Laerm;35474;51.032;6.998;2023-03-23T04:59:12;62.38;50.56;81.11;;
49568;Laerm;35474;51.032;6.998;2023-03-23T05:01:41;64.18;50.36;78.14;;
49568;Laerm;35474;51.032;6.998;2023-03-23T05:04:11;66.07;51.48;83.18;;
49568;Laerm;35474;51.032;6.998;2023-03-23T05:06:41;63.69;50.27;82.20;;
49568;Laerm;35474;51.032;6.998;2023-03-23T05:09:10;62.47;50.48;78.67;;
49568;Laerm;35474;51.032;6.998;2023-03-23T05:11:36;65.28;50.74;75.72;;
49568;Laerm;35474;51.032;6.998;2023-03-23T05:14:03;62.99;50.03;77.75;;
49568;Laerm;35474;51.032;6.998;2023-03-23T05:16:29;64.81;50.72;78.30;;
49568;Laerm;35474;51.032;6.998;2023-03-23T05:18:57;64.88;50.62;84.77;;
49568;Laerm;35474;51.032;6.998;2023-03-23T05:21:23;67.20;51.53;89.04;;
49568;Laerm;35474;51.032;6.998;2023-03-23T05:23:48;65.72;49.74;85.54;;
49568;Laerm;35474;51.032;6.998;2023-03-23T05:26:23;67.20;50.24;88.52;;
49568;Laerm;35474;51.032;6.998;2023-03-23T05:28:54;68.44;55.08;91.66;;
49568;Laerm;35474;51.032;6.998;2023-03-23T05:31:21;67.64;51.90;90.19;;
49568;Laerm;35474;51.032;6.998;2023-03-23T05:33:48;64.14;50.98;75.79;;
49568;Laerm;35474;51.032;6.998;2023-03-23T05:36:13;65.25;52.19;78.55;;
49568;Laerm;35474;51.032;6.998;2023-03-23T05:38:40;65.46;52.83;83.16;;
49568;Laerm;35474;51.032;6.998;2023-03-23T05:41:11;66.60;50.99;80.95;;
49568;Laerm;35474;51.032;6.998;2023-03-23T05:43:37;64.83;49.98;84.34;;
49568;Laerm;35474;51.032;6.998;2023-03-23T05:46:03;66.80;55.02;87.27;;
49568;Laerm;35474;51.032;6.998;2023-03-23T05:48:29;65.11;52.54;73.66;;
49568;Laerm;35474;51.032;6.998;2023-03-23T05:50:54;66.38;52.92;77.01;;
49568;Laerm;35474;51.032;6.998;2023-03-23T05:53:20;66.84;50.98;86.64;;
49568;Laerm;35474;51.032;6.998;2023-03-23T05:55:46;65.49;51.40;81.61;;
49568;Laerm;35474;51.032;6.998;2023-03-23T05:58:12;66.02;51.27;75.22;;
49568;Laerm;35474;51.032;6.998;2023-03-23T06:00:37;67.15;52.73;83.35;;
49568;Laerm;35474;51.032;6.998;2023-03-23T06:03:04;66.44;51.99;84.52;;
49568;Laerm;35474;51.032;6.998;2023-03-23T06:05:29;75.00;55.33;101.67;;
49568;Laerm;35474;51.032;6.998;2023-03-23T06:07:55;66.40;52.89;84.40;;
49568;Laerm;35474;51.032;6.998;2023-03-23T06:10:20;67.95;52.72;88.98;;
49568;Laerm;35474;51.032;6.998;2023-03-23T06:12:47;65.54;51.97;76.16;;
49568;Laerm;35474;51.032;6.998;2023-03-23T06:15:12;65.21;53.91;75.60;;
49568;Laerm;35474;51.032;6.998;2023-03-23T06:17:38;65.75;55.38;82.24;;
49568;Laerm;35474;51.032;6.998;2023-03-23T06:20:07;65.70;50.71;77.85;;
49568;Laerm;35474;51.032;6.998;2023-03-23T06:22:37;67.17;55.62;76.66;;
49568;Laerm;35474;51.032;6.998;2023-03-23T06:25:04;66.17;54.28;83.13;;
49568;Laerm;35474;51.032;6.998;2023-03-23T06:27:31;65.83;53.86;74.86;;
49568;Laerm;35474;51.032;6.998;2023-03-23T06:29:57;65.31;53.24;74.69;;
49568;Laerm;35474;51.032;6.998;2023-03-23T06:32:23;65.32;53.82;76.27;;
49568;Laerm;35474;51.032;6.998;2023-03-23T06:34:53;66.12;54.19;75.60;;
49568;Laerm;35474;51.032;6.998;2023-03-23T06:37:18;66.74;56.12;78.54;;
49568;Laerm;35474;51.032;6.998;2023-03-23T06:39:43;65.67;54.20;80.39;;
49568;Laerm;35474;51.032;6.998;2023-03-23T06:42:10;65.91;52.43;76.75;;
49568;Laerm;35474;51.032;6.998;2023-03-23T06:44:37;64.66;51.21;82.50;;
49568;Laerm;35474;51.032;6.998;2023-03-23T06:47:03;65.32;54.90;80.77;;
49568;Laerm;35474;51.032;6.998;2023-03-23T06:49:28;65.54;52.94;75.15;;
49568;Laerm;35474;51.032;6.998;2023-03-23T06:51:54;65.43;53.59;79.49;;
49568;Laerm;35474;51.032;6.998;2023-03-23T06:54:21;66.03;56.73;83.23;;
49568;Laerm;35474;51.032;6.998;2023-03-23T06:56:47;65.41;50.19;81.09;;
49568;Laerm;35474;51.032;6.998;2023-03-23T06:59:13;66.42;55.58;77.02;;
49568;Laerm;35474;51.032;6.998;2023-03-23T07:01:39;65.65;54.61;77.82;;
49568;Laerm;35474;51.032;6.998;2023-03-23T07:04:05;66.41;54.61;81.66;;
49568;Laerm;35474;51.032;6.998;2023-03-23T07:06:31;64.85;52.38;74.74;;
49568;Laerm;35474;51.032;6.998;2023-03-23T07:08:56;68.63;56.84;85.02;;
49568;Laerm;35474;51.032;6.998;2023-03-23T07:11:22;65.01;56.29;80.35;;
49568;Laerm;35474;51.032;6.998;2023-03-23T07:13:47;65.34;55.73;75.96;;
49568;Laerm;35474;51.032;6.998;2023-03-23T07:16:18;66.75;54.59;85.46;;
49568;Laerm;35474;51.032;6.998;2023-03-23T07:18:43;66.51;55.81;87.83;;
49568;Laerm;35474;51.032;6.998;2023-03-23T07:21:09;66.43;57.52;85.62;;
49568;Laerm;35474;51.032;6.998;2023-03-23T07:23:35;66.80;53.53;84.17;;
49568;Laerm;35474;51.032;6.998;2023-03-23T07:26:01;68.19;58.64;76.86;;
49568;Laerm;35474;51.032;6.998;2023-03-23T07:28:26;69.73;58.09;88.10;;
49568;Laerm;35474;51.032;6.998;2023-03-23T07:32:34;67.82;51.60;91.06;;
49568;Laerm;35474;51.032;6.998;2023-03-23T07:35:00;70.83;57.29;94.62;;
49568;Laerm;35474;51.032;6.998;2023-03-23T07:37:25;67.72;54.48;88.37;;
49568;Laerm;35474;51.032;6.998;2023-03-23T07:39:51;67.29;55.75;86.71;;
49568;Laerm;35474;51.032;6.998;2023-03-23T07:42:16;66.91;55.80;83.16;;
49568;Laerm;35474;51.032;6.998;2023-03-23T07:44:41;71.98;56.63;95.63;;
49568;Laerm;35474;51.032;6.998;2023-03-23T07:47:07;66.47;53.45;89.97;;
49568;Laerm;35474;51.032;6.998;2023-03-23T07:49:32;69.93;53.20;96.24;;
49568;Laerm;35474;51.032;6.998;2023-03-23T07:51:59;66.81;56.74;82.18;;
49568;Laerm;35474;51.032;6.998;2023-03-23T07:54:26;70.69;55.48;90.68;;
49568;Laerm;35474;51.032;6.998;2023-03-23T07:56:52;70.11;52.00;89.40;;
49568;Laerm;35474;51.032;6.998;2023-03-23T07:59:17;67.57;50.62;80.76;;
49568;Laerm;35474;51.032;6.998;2023-03-23T08:01:43;66.99;51.57;74.98;;
49568;Laerm;35474;51.032;6.998;2023-03-23T08:04:08;67.14;53.60;88.98;;
49568;Laerm;35474;51.032;6.998;2023-03-23T08:06:34;67.29;51.73;86.58;;
49568;Laerm;35474;51.032;6.998;2023-03-23T08:09:02;70.83;54.14;91.72;;
49568;Laerm;35474;51.032;6.998;2023-03-23T08:11:32;67.39;51.40;89.20;;
49568;Laerm;35474;51.032;6.998;2023-03-23T08:13:58;70.53;54.33;93.78;;
49568;Laerm;35474;51.032;6.998;2023-03-23T08:16:23;69.32;54.38;92.53;;
49568;Laerm;35474;51.032;6.998;2023-03-23T08:18:49;69.14;51.69;93.36;;
49568;Laerm;35474;51.032;6.998;2023-03-23T08:21:17;69.12;49.11;92.48;;
49568;Laerm;35474;51.032;6.998;2023-03-23T08:23:43;70.84;52.65;92.83;;
49568;Laerm;35474;51.032;6.998;2023-03-23T08:26:09;67.62;52.80;88.04;;
49568;Laerm;35474;51.032;6.998;2023-03-23T08:28:35;66.63;52.13;83.09;;
49568;Laerm;35474;51.032;6.998;2023-03-23T08:31:06;67.55;53.39;91.91;;
49568;Laerm;35474;51.032;6.998;2023-03-23T08:33:32;68.70;50.19;97.20;;
49568;Laerm;35474;51.032;6.998;2023-03-23T08:35:59;71.17;51.65;93.83;;
49568;Laerm;35474;51.032;6.998;2023-03-23T08:38:26;68.81;54.15;95.17;;
49568;Laerm;35474;51.032;6.998;2023-03-23T08:41:03;70.53;52.11;92.45;;
49568;Laerm;35474;51.032;6.998;2023-03-23T08:43:30;64.71;50.28;74.42;;
49568;Laerm;35474;51.032;6.998;2023-03-23T08:45:57;67.88;50.89;92.23;;
49568;Laerm;35474;51.032;6.998;2023-03-23T08:48:23;68.64;51.56;88.26;;
49568;Laerm;35474;51.032;6.998;2023-03-23T08:50:49;67.46;49.95;92.82;;
49568;Laerm;35474;51.032;6.998;2023-03-23T08:53:15;67.00;55.41;89.80;;
49568;Laerm;35474;51.032;6.998;2023-03-23T08:55:41;65.81;51.59;80.24;;
49568;Laerm;35474;51.032;6.998;2023-03-23T08:58:06;71.01;50.42;94.63;;
49568;Laerm;35474;51.032;6.998;2023-03-23T09:00:32;69.42;54.87;89.48;;
49568;Laerm;35474;51.032;6.998;2023-03-23T09:02:58;69.57;56.65;92.91;;
49568;Laerm;35474;51.032;6.998;2023-03-23T09:05:26;65.36;49.52;78.28;;
49568;Laerm;35474;51.032;6.998;2023-03-23T09:07:54;69.44;53.15;89.08;;
49568;Laerm;35474;51.032;6.998;2023-03-23T09:10:21;67.74;53.36;88.13;;
49568;Laerm;35474;51.032;6.998;2023-03-23T09:12:48;68.42;54.30;89.88;;
49568;Laerm;35474;51.032;6.998;2023-03-23T09:15:17;64.51;49.02;79.98;;
49568;Laerm;35474;51.032;6.998;2023-03-23T09:17:47;65.31;54.39;80.60;;
49568;Laerm;35474;51.032;6.998;2023-03-23T09:20:15;64.70;48.78;73.69;;
49568;Laerm;35474;51.032;6.998;2023-03-23T09:22:52;65.81;48.49;82.05;;
49568;Laerm;35474;51.032;6.998;2023-03-23T09:25:31;65.51;52.96;80.40;;
49568;Laerm;35474;51.032;6.998;2023-03-23T09:28:03;66.93;52.90;90.52;;
49568;Laerm;35474;51.032;6.998;2023-03-23T09:30:40;64.88;50.71;91.74;;
49568;Laerm;35474;51.032;6.998;2023-03-23T09:33:22;67.71;49.54;85.99;;
49568;Laerm;35474;51.032;6.998;2023-03-23T09:35:54;71.41;50.07;95.26;;
49568;Laerm;35474;51.032;6.998;2023-03-23T09:38:31;66.49;54.36;82.16;;
49568;Laerm;35474;51.032;6.998;2023-03-23T09:44:42;66.60;48.67;91.63;;
49568;Laerm;35474;51.032;6.998;2023-03-23T09:50:41;72.29;52.92;93.03;;
49568;Laerm;35474;51.032;6.998;2023-03-23T09:56:51;74.05;54.31;99.03;;
49568;Laerm;35474;51.032;6.998;2023-03-23T09:59:21;75.29;54.89;97.19;;
49568;Laerm;35474;51.032;6.998;2023-03-23T10:05:37;72.06;54.54;93.06;;
49568;Laerm;35474;51.032;6.998;2023-03-23T10:08:17;76.62;54.21;98.76;;
49568;Laerm;35474;51.032;6.998;2023-03-23T10:11:06;74.40;50.77;96.95;;
49568;Laerm;35474;51.032;6.998;2023-03-23T10:16:13;76.32;59.74;99.13;;
49568;Laerm;35474;51.032;6.998;2023-03-23T10:18:51;72.11;54.46;90.25;;
49568;Laerm;35474;51.032;6.998;2023-03-23T10:21:21;75.27;55.23;96.82;;
49568;Laerm;35474;51.032;6.998;2023-03-23T10:24:02;75.73;51.32;98.95;;
49568;Laerm;35474;51.032;6.998;2023-03-23T10:29:38;74.81;53.47;95.05;;
49568;Laerm;35474;51.032;6.998;2023-03-23T10:32:19;73.99;56.19;95.51;;
49568;Laerm;35474;51.032;6.998;2023-03-23T10:34:53;67.33;53.52;83.59;;
49568;Laerm;35474;51.032;6.998;2023-03-23T10:37:26;68.15;51.91;88.25;;
49568;Laerm;35474;51.032;6.998;2023-03-23T10:39:55;68.40;54.07;89.50;;
49568;Laerm;35474;51.032;6.998;2023-03-23T10:42:28;72.03;52.95;95.01;;
49568;Laerm;35474;51.032;6.998;2023-03-23T10:44:56;66.92;56.56;81.88;;
49568;Laerm;35474;51.032;6.998;2023-03-23T10:47:23;69.75;57.78;91.75;;
49568;Laerm;35474;51.032;6.998;2023-03-23T10:49:51;69.99;53.55;94.51;;
49568;Laerm;35474;51.032;6.998;2023-03-23T10:52:29;70.63;55.10;99.69;;
49568;Laerm;35474;51.032;6.998;2023-03-23T10:55:16;67.53;55.85;84.86;;
49568;Laerm;35474;51.032;6.998;2023-03-23T10:57:47;67.53;53.05;89.88;;
49568;Laerm;35474;51.032;6.998;2023-03-23T11:00:24;65.01;49.62;81.56;;
49568;Laerm;35474;51.032;6.998;2023-03-23T11:05:53;67.75;57.78;74.49;;
49568;Laerm;35474;51.032;6.998;2023-03-23T11:08:22;67.16;52.19;74.77;;
49568;Laerm;35474;51.032;6.998;2023-03-23T11:11:14;74.40;52.11;98.54;;
49568;Laerm;35474;51.032;6.998;2023-03-23T11:13:46;73.38;54.60;100.22;;
49568;Laerm;35474;51.032;6.998;2023-03-23T11:16:23;70.03;55.56;97.90;;
49568;Laerm;35474;51.032;6.998;2023-03-23T11:18:49;68.05;55.33;85.84;;
49568;Laerm;35474;51.032;6.998;2023-03-23T11:21:14;66.72;53.90;76.92;;
49568;Laerm;35474;51.032;6.998;2023-03-23T11:23:46;69.32;55.06;88.55;;
49568;Laerm;35474;51.032;6.998;2023-03-23T11:28:58;68.77;55.29;85.23;;
49568;Laerm;35474;51.032;6.998;2023-03-23T11:31:28;67.00;54.78;83.99;;
49568;Laerm;35474;51.032;6.998;2023-03-23T11:34:01;65.53;50.16;75.10;;
49568;Laerm;35474;51.032;6.998;2023-03-23T11:36:30;67.96;60.34;77.51;;
49568;Laerm;35474;51.032;6.998;2023-03-23T11:38:56;65.51;51.56;80.12;;
49568;Laerm;35474;51.032;6.998;2023-03-23T11:41:23;67.18;48.69;87.32;;
49568;Laerm;35474;51.032;6.998;2023-03-23T11:43:52;67.11;47.90;84.95;;
49568;Laerm;35474;51.032;6.998;2023-03-23T11:46:37;66.99;55.30;79.23;;
49568;Laerm;35474;51.032;6.998;2023-03-23T11:49:12;69.66;49.87;92.96;;
49568;Laerm;35474;51.032;6.998;2023-03-23T11:51:49;66.04;53.76;76.56;;
49568;Laerm;35474;51.032;6.998;2023-03-23T11:54:37;67.40;52.64;80.36;;
49568;Laerm;35474;51.032;6.998;2023-03-23T11:57:08;66.92;51.73;75.92;;
49568;Laerm;35474;51.032;6.998;2023-03-23T11:59:41;68.36;56.91;84.26;;
49568;Laerm;35474;51.032;6.998;2023-03-23T12:02:39;68.94;55.17;85.58;;
49568;Laerm;35474;51.032;6.998;2023-03-23T12:11:11;69.84;51.09;78.30;;
49568;Laerm;35474;51.032;6.998;2023-03-23T12:13:56;68.60;52.94;76.48;;
49568;Laerm;35474;51.032;6.998;2023-03-23T12:38:10;66.98;49.93;73.52;;
49568;Laerm;35474;51.032;6.998;2023-03-23T12:40:42;67.46;57.47;71.91;;
49568;Laerm;35474;51.032;6.998;2023-03-23T12:46:09;67.68;53.83;74.54;;
49568;Laerm;35474;51.032;6.998;2023-03-23T12:48:42;67.20;51.13;75.24;;
49568;Laerm;35474;51.032;6.998;2023-03-23T12:51:24;67.39;56.37;75.22;;
49568;Laerm;35474;51.032;6.998;2023-03-23T12:56:56;67.22;51.16;72.26;;
49568;Laerm;35474;51.032;6.998;2023-03-23T13:02:31;67.21;55.84;75.14;;
49568;Laerm;35474;51.032;6.998;2023-03-23T13:07:45;68.00;57.75;87.36;;
49568;Laerm;35474;51.032;6.998;2023-03-23T13:10:23;67.90;57.61;76.49;;
49568;Laerm;35474;51.032;6.998;2023-03-23T13:12:52;66.87;53.71;80.12;;
49568;Laerm;35474;51.032;6.998;2023-03-23T13:20:52;75.31;55.25;95.30;;
49568;Laerm;35474;51.032;6.998;2023-03-23T13:26:09;75.44;55.42;98.46;;
49568;Laerm;35474;51.032;6.998;2023-03-23T13:28:58;75.29;51.08;96.42;;
49568;Laerm;35474;51.032;6.998;2023-03-23T13:31:27;79.88;57.81;98.12;;
49568;Laerm;35474;51.032;6.998;2023-03-23T13:36:36;83.29;57.32;106.11;;
49568;Laerm;35474;51.032;6.998;2023-03-23T13:39:05;80.92;59.63;103.79;;
49568;Laerm;35474;51.032;6.998;2023-03-23T13:41:33;76.39;56.86;98.68;;
49568;Laerm;35474;51.032;6.998;2023-03-23T13:44:23;76.99;53.15;96.61;;
49568;Laerm;35474;51.032;6.998;2023-03-23T13:47:37;72.85;53.84;99.88;;
49568;Laerm;35474;51.032;6.998;2023-03-23T13:57:55;80.51;52.48;102.34;;
49568;Laerm;35474;51.032;6.998;2023-03-23T14:08:38;70.58;56.37;87.73;;
49568;Laerm;35474;51.032;6.998;2023-03-23T14:11:25;67.40;54.06;79.19;;
49568;Laerm;35474;51.032;6.998;2023-03-23T14:14:13;67.82;55.38;77.13;;
49568;Laerm;35474;51.032;6.998;2023-03-23T14:19:27;68.08;54.07;75.78;;
49568;Laerm;35474;51.032;6.998;2023-03-23T14:21:57;67.31;55.98;79.59;;
49568;Laerm;35474;51.032;6.998;2023-03-23T14:24:30;65.87;55.49;80.59;;
49568;Laerm;35474;51.032;6.998;2023-03-23T14:27:16;68.25;56.69;81.92;;
49568;Laerm;35474;51.032;6.998;2023-03-23T14:29:42;67.42;54.32;77.16;;
49568;Laerm;35474;51.032;6.998;2023-03-23T14:32:14;66.58;47.96;80.09;;
49568;Laerm;35474;51.032;6.998;2023-03-23T14:34:41;68.08;51.84;75.94;;
49568;Laerm;35474;51.032;6.998;2023-03-23T14:37:11;66.47;47.70;73.80;;
49568;Laerm;35474;51.032;6.998;2023-03-23T14:39:38;65.81;47.34;72.79;;
49568;Laerm;35474;51.032;6.998;2023-03-23T14:42:06;67.32;57.48;73.42;;
49568;Laerm;35474;51.032;6.998;2023-03-23T14:44:36;66.33;55.14;74.71;;
49568;Laerm;35474;51.032;6.998;2023-03-23T14:47:05;66.88;48.12;80.20;;
49568;Laerm;35474;51.032;6.998;2023-03-23T14:49:35;66.65;49.66;73.75;;
49568;Laerm;35474;51.032;6.998;2023-03-23T14:52:12;68.08;52.80;72.84;;
49568;Laerm;35474;51.032;6.998;2023-03-23T14:54:39;66.81;50.06;72.12;;
49568;Laerm;35474;51.032;6.998;2023-03-23T14:57:15;66.61;51.64;76.62;;
49568;Laerm;35474;51.032;6.998;2023-03-23T14:59:46;67.46;54.84;77.24;;
49568;Laerm;35474;51.032;6.998;2023-03-23T15:02:35;64.85;51.11;73.21;;
49568;Laerm;35474;51.032;6.998;2023-03-23T15:05:15;67.38;54.97;74.71;;
49568;Laerm;35474;51.032;6.998;2023-03-23T15:07:44;66.93;52.50;72.98;;
49568;Laerm;35474;51.032;6.998;2023-03-23T15:10:16;65.34;54.12;78.19;;
49568;Laerm;35474;51.032;6.998;2023-03-23T15:12:45;65.84;57.94;77.62;;
49568;Laerm;35474;51.032;6.998;2023-03-23T15:15:22;66.22;53.72;72.53;;
49568;Laerm;35474;51.032;6.998;2023-03-23T15:17:50;66.06;53.70;71.72;;
49568;Laerm;35474;51.032;6.998;2023-03-23T15:20:23;65.72;52.41;73.50;;
49568;Laerm;35474;51.032;6.998;2023-03-23T15:23:06;66.85;55.07;79.47;;
49568;Laerm;35474;51.032;6.998;2023-03-23T15:25:34;67.99;53.82;74.69;;
49568;Laerm;35474;51.032;6.998;2023-03-23T15:30:36;67.03;53.53;76.45;;
49568;Laerm;35474;51.032;6.998;2023-03-23T15:33:12;67.62;56.18;79.94;;
49568;Laerm;35474;51.032;6.998;2023-03-23T15:35:41;68.63;53.70;90.14;;
49568;Laerm;35474;51.032;6.998;2023-03-23T15:38:23;68.36;56.27;85.92;;
49568;Laerm;35474;51.032;6.998;2023-03-23T15:40:51;67.70;53.31;83.92;;
49568;Laerm;35474;51.032;6.998;2023-03-23T15:43:19;67.56;50.11;76.71;;
49568;Laerm;35474;51.032;6.998;2023-03-23T15:48:24;66.22;54.38;80.69;;
49568;Laerm;35474;51.032;6.998;2023-03-23T15:50:50;68.02;50.90;86.64;;
49568;Laerm;35474;51.032;6.998;2023-03-23T15:53:42;73.69;49.04;96.67;;
49568;Laerm;35474;51.032;6.998;2023-03-23T15:56:10;68.67;59.97;81.67;;
49568;Laerm;35474;51.032;6.998;2023-03-23T15:58:36;68.03;57.57;87.34;;
49568;Laerm;35474;51.032;6.998;2023-03-23T16:01:07;68.62;50.57;92.10;;